Time;durP1;ratioP1;P1;durP2;ratioP2;P2;SDS_P1;SDS_P2;PMS_P1;PMS_P2;Temp;Humidity;BMP_temperature;BMP_pressure;BME280_temperature;BME280_humidity;BME280_pressure;Samples;Min_cycle;Max_cycle;Signal;HPM_P1;HPM_P2
2022/01/08 00:00:24;;;;;;;15.13;5.63;;;6.50;99.90;;;6.56;68.33;100883.19;5074449;28;20048;-72
2022/01/08 00:02:53;;;;;;;14.82;6.10;;;6.40;99.90;;;6.48;69.18;100879.59;5074558;28;20050;-74
2022/01/08 00:05:22;;;;;;;16.13;5.57;;;6.30;99.90;;;6.53;69.25;100885.78;5074474;28;20379;-81
2022/01/08 00:07:50;;;;;;;14.60;6.63;;;6.30;99.90;;;6.49;69.17;100885.69;5074371;28;20449;-74
2022/01/08 00:10:19;;;;;;;20.13;5.95;;;6.30;99.90;;;6.56;68.32;100891.06;5074368;28;20041;-67
2022/01/08 00:12:49;;;;;;;10.65;5.07;;;6.30;99.90;;;6.60;67.44;100892.00;5074356;28;20044;-71
2022/01/08 00:15:18;;;;;;;16.90;5.25;;;6.40;99.90;;;6.35;67.90;100869.78;5074519;28;20452;-73
2022/01/08 00:17:48;;;;;;;14.83;5.73;;;6.40;99.90;;;6.47;68.12;100885.69;5074423;28;20110;-73
2022/01/08 00:20:17;;;;;;;16.30;6.72;;;6.40;99.90;;;6.43;68.25;100889.13;5073204;28;20136;-73
2022/01/08 00:22:49;;;;;;;13.60;5.50;;;6.30;99.90;;;6.54;68.12;100903.31;5074035;28;20063;-73
2022/01/08 00:25:18;;;;;;;13.40;5.67;;;6.40;99.90;;;6.59;68.13;100901.63;5074393;28;20071;-73
2022/01/08 00:27:46;;;;;;;14.00;5.20;;;6.40;99.90;;;6.57;68.47;100897.19;5074069;28;20123;-73
2022/01/08 00:30:15;;;;;;;13.65;5.82;;;6.40;99.90;;;6.46;68.82;100904.97;5074218;28;20091;-74
2022/01/08 00:32:43;;;;;;;16.23;6.00;;;6.30;99.90;;;6.44;68.79;100892.66;5074454;28;20048;-74
2022/01/08 00:35:14;;;;;;;13.80;6.15;;;6.30;99.90;;;6.47;68.99;100887.44;5073717;28;20049;-73
2022/01/08 00:37:42;;;;;;;12.48;5.55;;;6.30;99.90;;;6.59;68.86;100890.22;5073858;28;20044;-74
2022/01/08 00:40:13;;;;;;;18.48;5.93;;;6.40;99.90;;;6.62;69.06;100890.25;5073686;28;20083;-73
2022/01/08 00:42:42;;;;;;;13.63;5.43;;;6.40;99.90;;;6.70;69.14;100888.56;5073764;28;20502;-73
2022/01/08 00:45:11;;;;;;;13.82;5.35;;;6.50;99.90;;;6.78;68.93;100889.56;5073683;28;20120;-74
2022/01/08 00:47:39;;;;;;;15.68;5.75;;;6.60;99.90;;;6.66;68.86;100873.66;5073592;28;20040;-73
2022/01/08 00:50:10;;;;;;;18.63;5.55;;;6.60;99.90;;;6.84;69.00;100893.13;5073471;28;20047;-73
2022/01/08 00:52:40;;;;;;;16.23;5.78;;;6.60;99.90;;;6.67;68.89;100871.06;5074190;28;20110;-73
2022/01/08 00:55:10;;;;;;;16.15;5.80;;;6.60;99.90;;;6.07;69.20;100795.03;5073752;28;20049;-73
2022/01/08 00:57:38;;;;;;;12.50;5.93;;;6.50;99.90;;;6.91;68.74;100910.72;5073323;28;20083;-73
2022/01/08 01:00:10;;;;;;;13.05;5.75;;;6.70;99.90;;;6.83;68.92;100917.66;5072425;28;20057;-73
2022/01/08 01:02:40;;;;;;;17.25;5.88;;;6.70;99.90;;;6.73;69.35;100907.03;5073914;28;20052;-73
2022/01/08 01:05:10;;;;;;;15.80;5.13;;;6.60;99.90;;;6.83;69.22;100908.91;5073252;28;20048;-73
2022/01/08 01:07:40;;;;;;;10.50;5.47;;;6.60;99.90;;;6.90;68.92;100901.09;5072981;28;20447;-74
2022/01/08 01:10:10;;;;;;;14.27;6.15;;;6.70;99.90;;;7.10;68.63;100906.56;5072918;28;20117;-74
2022/01/08 01:12:39;;;;;;;10.80;5.60;;;6.80;99.90;;;7.08;68.57;100909.16;5073482;28;20052;-74
2022/01/08 01:15:13;;;;;;;11.83;6.43;;;6.90;99.90;;;6.96;69.11;100906.44;5073392;28;20066;-74
2022/01/08 01:17:42;;;;;;;15.95;5.57;;;6.80;99.90;;;6.65;69.69;100895.53;5073141;28;20131;-72
2022/01/08 01:20:13;;;;;;;15.32;6.40;;;6.60;99.90;;;6.69;69.55;100907.84;5072923;28;20576;-73
2022/01/08 01:22:51;;;;;;;24.02;6.82;;;6.50;99.90;;;6.78;69.50;100903.59;5073097;28;20383;-73
2022/01/08 01:25:25;;;;;;;18.03;6.60;;;6.50;99.90;;;6.76;69.49;100907.94;5073020;28;20106;-74
2022/01/08 01:28:01;;;;;;;14.65;6.00;;;6.60;99.90;;;6.69;69.55;100905.22;5073041;28;20040;-73
2022/01/08 01:30:58;;;;;;;16.48;6.85;;;6.50;99.90;;;6.78;69.70;100906.22;5105766;28;20478;-73
2022/01/08 01:42:14;;;;;;;16.42;5.75;;;6.60;99.90;;;6.98;68.84;100922.22;5072845;28;20048;-74
2022/01/08 01:47:34;;;;;;;12.52;6.38;;;6.80;99.90;;;7.12;67.37;100918.00;5072876;28;20068;-73
2022/01/08 01:50:06;;;;;;;11.57;5.72;;;6.90;99.90;;;7.20;67.13;100932.09;5073003;28;20072;-73
2022/01/08 01:52:36;;;;;;;11.30;5.63;;;6.90;99.90;;;7.10;67.00;100933.72;5072761;28;20072;-74
2022/01/08 01:55:08;;;;;;;18.30;5.88;;;6.90;99.90;;;6.88;67.81;100926.50;5072573;28;20588;-72
2022/01/08 01:57:37;;;;;;;14.57;6.63;;;6.80;99.90;;;6.91;67.98;100938.78;5072519;28;20490;-73
2022/01/08 02:00:08;;;;;;;16.17;6.32;;;6.70;99.90;;;6.83;68.67;100938.69;5072659;28;20569;-73
2022/01/08 02:02:40;;;;;;;15.75;5.88;;;6.70;99.90;;;6.71;69.53;100938.56;5072857;28;20061;-72
2022/01/08 02:05:10;;;;;;;18.92;6.00;;;6.60;99.90;;;6.62;69.73;100922.66;5072519;28;20048;-74
2022/01/08 02:07:38;;;;;;;13.20;6.37;;;6.50;99.90;;;6.67;70.00;100934.13;5072789;28;20478;-73
2022/01/08 02:10:10;;;;;;;15.83;6.20;;;6.50;99.90;;;6.65;70.68;100937.59;5072513;28;20486;-74
2022/01/08 02:12:38;;;;;;;20.42;6.45;;;6.50;99.90;;;6.62;70.84;100933.16;5072518;28;20037;-74
2022/01/08 02:15:08;;;;;;;13.80;6.27;;;6.50;99.90;;;6.65;70.31;100927.06;5072635;28;20140;-74
2022/01/08 02:17:36;;;;;;;13.77;5.97;;;6.50;99.90;;;6.67;70.01;100926.25;5072451;28;20469;-74
2022/01/08 02:20:08;;;;;;;14.13;5.43;;;6.50;99.90;;;6.51;70.29;100915.50;5074101;28;20047;-74
2022/01/08 02:22:36;;;;;;;11.48;5.53;;;6.40;99.90;;;6.59;70.03;100932.25;5076561;28;20135;-74
2022/01/08 02:25:06;;;;;;;17.77;6.22;;;6.40;99.90;;;6.57;69.82;100928.72;5076411;28;20127;-74
2022/01/08 02:27:34;;;;;;;14.03;4.90;;;6.40;99.90;;;6.67;69.77;100925.34;5075375;28;20097;-74
2022/01/08 02:30:04;;;;;;;19.27;5.78;;;6.50;99.90;;;6.78;69.61;100927.25;5076620;28;20306;-73
2022/01/08 02:32:35;;;;;;;14.63;6.60;;;6.60;99.90;;;6.78;69.46;100927.25;5076272;28;20066;-74
2022/01/08 02:35:06;;;;;;;9.60;4.88;;;6.60;99.90;;;6.77;69.86;100924.59;5074968;28;20097;-74
2022/01/08 02:37:35;;;;;;;12.68;5.88;;;6.60;99.90;;;6.63;70.27;100918.28;5076434;28;20087;-73
2022/01/08 02:40:07;;;;;;;13.65;5.80;;;6.50;99.90;;;6.64;70.60;100925.31;5075003;28;20048;-73
2022/01/08 02:42:48;;;;;;;19.73;5.38;;;6.50;99.90;;;6.43;70.75;100909.31;5076406;28;20443;-74
2022/01/08 02:45:18;;;;;;;19.60;5.80;;;6.40;99.90;;;6.53;70.61;100940.94;5076101;28;20048;-73
2022/01/08 02:47:47;;;;;;;18.57;6.27;;;6.40;99.90;;;6.57;70.79;100936.59;5075994;28;20102;-75
2022/01/08 02:50:17;;;;;;;12.77;5.80;;;6.40;99.90;;;6.84;70.36;100934.31;5076183;28;20079;-73
2022/01/08 02:52:47;;;;;;;11.10;5.53;;;6.60;99.90;;;6.81;70.19;100936.91;5075987;28;20072;-74
2022/01/08 02:55:20;;;;;;;8.15;5.20;;;6.70;99.90;;;6.96;69.97;100940.59;5076125;28;20455;-74
2022/01/08 02:57:49;;;;;;;11.65;5.28;;;6.70;99.90;;;7.04;69.82;100945.94;5075820;28;20056;-73
2022/01/08 03:00:20;;;;;;;9.00;4.80;;;6.80;99.90;;;7.12;69.81;100928.50;5075760;28;20068;-73
2022/01/08 03:02:50;;;;;;;10.00;5.55;;;6.90;99.90;;;7.16;69.79;100922.41;5108616;28;20059;-73
2022/01/08 03:05:21;;;;;;;13.25;5.20;;;6.90;99.90;;;7.17;70.23;100919.78;5075710;28;20041;-73
2022/01/08 03:07:50;;;;;;;9.38;5.18;;;6.90;99.90;;;7.21;70.12;100921.59;5075688;28;20071;-74
2022/01/08 03:10:19;;;;;;;10.10;5.20;;;7.00;99.90;;;7.20;70.55;100921.56;5075502;28;20052;-74
2022/01/08 03:12:49;;;;;;;10.52;5.68;;;7.00;99.90;;;7.16;70.62;100919.78;5075472;28;20449;-74
2022/01/08 03:15:21;;;;;;;18.00;6.13;;;7.00;99.90;;;7.20;70.59;100926.84;5075739;28;20044;-73
2022/01/08 03:17:50;;;;;;;16.83;5.88;;;6.90;99.90;;;6.91;71.46;100926.50;5074068;28;20415;-74
2022/01/08 03:20:20;;;;;;;11.15;5.10;;;6.70;99.90;;;6.78;71.79;100923.72;5075359;28;20103;-73
2022/01/08 03:22:48;;;;;;;18.70;5.80;;;6.60;99.90;;;6.64;71.92;100899.03;5075853;28;20548;-73
2022/01/08 03:25:17;;;;;;;14.48;5.90;;;6.60;99.90;;;6.66;72.16;100910.47;5075324;28;20494;-73
2022/01/08 03:27:48;;;;;;;18.92;5.75;;;6.50;99.90;;;6.65;72.08;100912.19;5075570;28;20573;-73
2022/01/08 03:30:17;;;;;;;18.67;6.10;;;6.50;99.90;;;6.63;72.73;100918.28;5075296;28;20106;-73
2022/01/08 03:32:45;;;;;;;16.37;6.13;;;6.50;99.90;;;6.63;72.58;100926.19;5074532;28;20464;-74
2022/01/08 03:35:15;;;;;;;20.93;6.60;;;6.50;99.90;;;6.61;72.19;100923.53;5075308;28;20044;-73
2022/01/08 03:37:45;;;;;;;13.10;6.10;;;6.50;99.90;;;6.74;72.03;100920.19;5074956;28;20037;-73
2022/01/08 03:40:13;;;;;;;22.80;7.00;;;6.60;99.90;;;6.84;71.73;100918.53;5075076;28;20036;-73
2022/01/08 03:42:42;;;;;;;14.10;5.40;;;6.60;99.90;;;6.91;71.72;100925.66;5075049;28;20454;-72
2022/01/08 03:45:11;;;;;;;15.57;6.00;;;6.70;99.90;;;6.96;71.26;100921.31;5074931;28;20098;-73
2022/01/08 03:47:54;;;;;;;19.23;6.00;;;6.70;99.90;;;6.82;71.44;100921.16;5075422;28;20052;-74
2022/01/08 03:50:25;;;;;;;21.35;6.30;;;6.60;99.90;;;6.83;71.52;100922.03;5074848;28;20486;-73
2022/01/08 03:52:55;;;;;;;14.77;6.13;;;6.70;99.90;;;6.71;71.86;100914.91;5074817;28;20072;-74
2022/01/08 03:55:23;;;;;;;11.37;6.07;;;6.60;99.90;;;6.72;71.59;100915.75;5074745;28;20097;-73
2022/01/08 03:57:52;;;;;;;13.35;6.03;;;6.60;99.90;;;6.72;71.57;100910.50;5074318;28;20490;-73
2022/01/08 04:00:20;;;;;;;14.98;5.25;;;6.50;99.90;;;6.84;70.96;100926.44;5073670;28;20170;-73
2022/01/08 04:02:50;;;;;;;15.90;5.57;;;6.60;99.90;;;6.66;70.90;100915.72;5075147;28;20124;-73
2022/01/08 04:05:19;;;;;;;11.73;5.60;;;6.60;99.90;;;6.65;71.25;100916.56;5074508;28;20052;-72
2022/01/08 04:07:47;;;;;;;13.07;5.95;;;6.50;99.90;;;6.70;71.48;100915.75;5074487;28;20086;-73
2022/01/08 04:10:17;;;;;;;20.15;6.28;;;6.50;99.90;;;6.77;71.16;100919.34;5073367;28;20056;-72
2022/01/08 04:12:49;;;;;;;15.02;5.85;;;6.60;99.90;;;6.73;70.80;100913.19;5074896;28;20048;-73
2022/01/08 04:15:34;;;;;;;15.43;5.90;;;6.60;99.90;;;6.37;70.64;100847.03;5073360;28;20054;-72
2022/01/08 04:18:02;;;;;;;11.65;5.30;;;6.60;99.90;;;6.82;70.21;100922.91;5074625;28;20465;-73
2022/01/08 04:20:31;;;;;;;13.55;5.38;;;6.60;99.90;;;6.81;69.82;100929.94;5074198;28;20550;-72
2022/01/08 04:22:59;;;;;;;11.80;5.28;;;6.60;99.90;;;6.73;70.06;100920.16;5074702;28;20101;-72
2022/01/08 04:25:30;;;;;;;18.30;6.20;;;6.60;99.90;;;6.75;70.08;100926.31;5074138;28;20047;-72
2022/01/08 04:27:58;;;;;;;12.95;5.68;;;6.60;99.90;;;6.85;70.00;100938.72;5074745;28;20437;-73
2022/01/08 04:30:26;;;;;;;11.63;5.72;;;6.60;99.90;;;6.82;69.95;100934.31;5073995;28;20040;-72
2022/01/08 04:32:55;;;;;;;15.00;5.60;;;6.70;99.90;;;6.83;69.83;100941.31;5074238;28;20394;-74
2022/01/08 04:35:23;;;;;;;14.25;5.95;;;6.70;99.90;;;6.77;70.54;100943.00;5074114;28;20461;-74
2022/01/08 04:37:52;;;;;;;12.25;6.47;;;6.60;99.90;;;6.89;70.69;100945.78;5072723;28;20048;-73
2022/01/08 04:40:21;;;;;;;15.88;5.70;;;6.60;99.90;;;6.93;70.43;100955.47;5073838;28;20141;-73
2022/01/08 04:42:50;;;;;;;17.13;6.00;;;6.70;99.90;;;7.00;70.05;100952.03;5073318;28;20041;-73
2022/01/08 04:45:21;;;;;;;17.20;5.20;;;6.80;99.90;;;6.96;69.85;100953.75;5074124;28;20135;-73
2022/01/08 04:47:49;;;;;;;15.77;6.07;;;6.80;99.90;;;7.07;69.76;100951.22;5074034;28;20079;-73
2022/01/08 04:50:17;;;;;;;11.68;5.70;;;6.90;99.90;;;7.17;69.11;100947.84;5072595;28;20458;-72
2022/01/08 04:52:46;;;;;;;11.52;5.25;;;6.90;99.90;;;7.20;69.08;100954.00;5073600;28;20053;-73
2022/01/08 04:55:14;;;;;;;10.55;5.45;;;7.00;99.90;;;7.23;69.07;100940.91;5073706;28;20443;-72
2022/01/08 04:57:43;;;;;;;17.92;5.45;;;7.00;99.90;;;7.32;68.59;100934.81;5073215;28;20102;-72
2022/01/08 05:00:14;;;;;;;13.32;5.88;;;7.10;99.90;;;7.32;68.04;100940.09;5072494;28;20143;-72
2022/01/08 05:02:42;;;;;;;10.10;5.85;;;7.20;99.90;;;7.27;67.86;100940.06;5073454;28;20045;-72
2022/01/08 05:05:12;;;;;;;13.18;5.65;;;7.10;99.90;;;7.15;67.77;100915.38;5073605;28;20048;-73
2022/01/08 05:07:40;;;;;;;13.85;5.78;;;7.10;99.90;;;7.32;67.82;100940.09;5073258;28;20126;-73
2022/01/08 05:10:10;;;;;;;14.35;5.55;;;7.10;99.90;;;7.35;67.52;100942.78;5073783;28;20040;-72
2022/01/08 05:12:39;;;;;;;13.02;5.53;;;7.10;99.90;;;7.41;67.28;100942.81;5073264;28;20056;-72
2022/01/08 05:15:08;;;;;;;11.13;4.88;;;7.10;99.90;;;7.37;67.07;100948.94;5073135;28;20550;-73
2022/01/08 05:17:39;;;;;;;10.55;4.93;;;7.10;99.90;;;7.30;67.15;100936.56;5073060;28;20049;-72
2022/01/08 05:20:11;;;;;;;12.50;5.57;;;7.10;99.90;;;7.30;67.30;100947.97;5073690;28;20036;-73
2022/01/08 05:22:50;;;;;;;14.40;6.15;;;7.10;99.90;;;7.27;67.56;100953.22;5073134;28;20559;-72
2022/01/08 05:25:22;;;;;;;9.20;5.35;;;7.00;99.90;;;7.24;67.74;100950.53;5073102;28;20036;-73
2022/01/08 05:27:52;;;;;;;10.27;5.55;;;7.00;99.90;;;7.32;67.74;100948.88;5073635;28;20102;-73
2022/01/08 05:30:22;;;;;;;14.05;6.03;;;7.00;99.90;;;7.19;67.25;100907.53;5072965;28;20474;-72
2022/01/08 05:32:53;;;;;;;14.00;6.10;;;7.10;99.90;;;7.44;67.42;100945.47;5072975;28;20482;-72
2022/01/08 05:35:23;;;;;;;12.45;5.60;;;7.20;99.90;;;7.43;67.53;100963.88;5073472;28;20048;-73
2022/01/08 05:37:53;;;;;;;10.23;5.82;;;7.20;99.90;;;7.39;67.19;100964.72;5072803;28;20044;-73
2022/01/08 05:40:22;;;;;;;12.85;5.43;;;7.10;99.90;;;7.37;67.31;100971.72;5072847;28;20136;-73
2022/01/08 05:42:51;;;;;;;10.00;4.97;;;7.20;99.90;;;7.38;68.12;100966.47;5072850;28;20067;-71
2022/01/08 05:45:19;;;;;;;11.18;5.40;;;7.20;99.90;;;7.42;67.70;100967.38;5072777;28;20049;-73
2022/01/08 05:47:47;;;;;;;11.95;5.70;;;7.10;99.90;;;7.42;67.90;100960.38;5073033;28;20046;-72
2022/01/08 05:50:18;;;;;;;13.60;5.70;;;7.10;99.90;;;7.37;67.63;100958.56;5072692;28;20052;-73
2022/01/08 05:52:48;;;;;;;15.73;5.60;;;7.10;99.90;;;7.36;67.84;100948.88;5073326;28;20047;-72
2022/01/08 05:55:17;;;;;;;11.30;6.00;;;7.10;99.90;;;7.34;67.68;100958.53;5072373;28;20127;-72
2022/01/08 05:57:46;;;;;;;15.02;5.50;;;7.10;99.90;;;7.30;68.00;100952.34;5071298;28;20068;-73
2022/01/08 06:00:15;;;;;;;9.68;4.70;;;7.10;99.90;;;7.25;68.47;100949.69;5072645;28;20036;-73
2022/01/08 06:02:43;;;;;;;11.98;5.38;;;7.00;99.90;;;7.20;68.27;100942.63;5072572;28;20048;-73
2022/01/08 06:05:12;;;;;;;10.75;5.47;;;6.90;99.90;;;7.08;68.34;100951.22;5072699;28;20101;-72
2022/01/08 06:07:41;;;;;;;14.93;6.35;;;6.90;99.90;;;6.77;68.91;100949.16;5072532;28;20188;-72
2022/01/08 06:10:10;;;;;;;8.30;5.90;;;6.70;99.90;;;6.70;69.78;100949.91;5072520;28;20118;-72
2022/01/08 06:12:39;;;;;;;10.07;5.78;;;6.60;99.90;;;6.67;70.16;100946.38;5072542;28;20286;-72
2022/01/08 06:15:08;;;;;;;15.48;6.18;;;6.50;99.90;;;6.62;70.41;100945.44;5073077;28;20140;-73
2022/01/08 06:17:37;;;;;;;14.47;6.20;;;6.50;99.90;;;6.62;70.66;100934.94;5072395;28;20490;-73
2022/01/08 06:20:08;;;;;;;14.23;6.72;;;6.40;99.90;;;6.39;71.00;100935.50;5072414;28;20381;-72
2022/01/08 06:22:36;;;;;;;16.40;5.82;;;6.30;99.90;;;6.47;71.38;100932.09;5072726;28;20036;-73
2022/01/08 06:25:07;;;;;;;9.57;5.43;;;6.30;99.90;;;6.55;71.15;100930.44;5072460;28;20459;-73
2022/01/08 06:27:35;;;;;;;;;;;6.30;99.90;;;6.49;71.66;100931.25;5071839;28;20053;-72
2022/01/08 06:30:04;;;;;;;12.98;6.30;;;6.30;99.90;;;6.59;71.51;100922.63;5072577;28;19928;-73
2022/01/08 06:32:33;;;;;;;11.10;6.15;;;6.30;99.90;;;6.66;71.19;100929.72;5072844;28;20402;-72
2022/01/08 06:35:02;;;;;;;10.40;5.00;;;6.40;99.90;;;6.68;71.15;100930.63;5072811;28;20055;-72
2022/01/08 06:37:30;;;;;;;15.23;6.00;;;6.40;99.90;;;6.65;70.98;100921.81;5072174;28;20056;-71
2022/01/08 06:39:59;;;;;;;10.70;5.93;;;6.50;99.90;;;6.71;71.13;100928.03;5072265;28;20474;-73
2022/01/08 06:42:28;;;;;;;12.80;6.18;;;6.50;99.90;;;6.65;70.79;100908.69;5072198;28;20047;-72
2022/01/08 06:44:57;;;;;;;14.13;5.43;;;6.50;99.90;;;6.65;71.22;100920.09;5072407;28;20041;-72
2022/01/08 06:47:25;;;;;;;16.25;6.43;;;6.50;99.90;;;6.54;71.58;100919.09;5072390;28;20398;-71
2022/01/08 06:49:53;;;;;;;9.32;6.00;;;6.40;99.90;;;6.46;71.68;100911.94;5072661;28;20076;-73
2022/01/08 06:52:21;;;;;;;10.07;5.65;;;6.30;99.90;;;6.41;72.40;100911.03;5071062;28;20548;-72
2022/01/08 06:54:50;;;;;;;16.45;6.70;;;6.20;99.90;;;6.45;72.85;100910.16;5072295;28;20094;-73
2022/01/08 06:57:23;;;;;;;8.65;5.53;;;6.20;99.90;;;6.49;72.87;100909.34;5072356;28;20502;-73
2022/01/08 06:59:53;;;;;;;14.45;5.90;;;6.20;99.90;;;6.52;73.29;100907.66;5071810;28;20131;-72
2022/01/08 07:02:21;;;;;;;12.20;5.83;;;6.30;99.90;;;6.53;73.41;100911.16;5072619;28;20048;-72
2022/01/08 07:04:50;;;;;;;9.68;5.13;;;6.30;99.90;;;6.54;73.80;100912.94;5071991;28;20048;-73
2022/01/08 07:07:19;;;;;;;10.30;5.93;;;6.30;99.90;;;6.53;73.78;100911.16;5073720;28;20102;-72
2022/01/08 07:09:48;;;;;;;12.97;5.60;;;6.30;99.90;;;6.53;74.26;100898.91;5075876;28;20048;-72
2022/01/08 07:12:16;;;;;;;13.83;6.13;;;6.30;99.90;;;6.57;73.90;100900.72;5074517;28;20052;-72
2022/01/08 07:14:44;;;;;;;11.03;5.13;;;6.30;99.90;;;6.56;74.08;100895.44;5075432;28;20405;-72
2022/01/08 07:17:14;;;;;;;10.75;5.88;;;6.40;99.90;;;6.54;74.30;100899.78;5074410;28;20051;-72
2022/01/08 07:19:43;;;;;;;14.75;6.32;;;6.30;99.90;;;6.51;74.89;100891.84;5075485;28;20098;-73
2022/01/08 07:22:11;;;;;;;13.20;6.00;;;6.30;99.90;;;6.50;74.83;100883.13;5075209;28;20114;-72
2022/01/08 07:24:40;;;;;;;15.13;6.03;;;6.30;99.90;;;6.57;75.23;100891.94;5075097;28;20074;-72
2022/01/08 07:27:09;;;;;;;11.67;6.33;;;6.30;99.90;;;6.55;75.55;100884.03;5075175;28;20047;-72
2022/01/08 07:29:37;;;;;;;11.83;5.87;;;6.30;99.90;;;6.55;75.56;100883.16;5075216;28;20462;-73
2022/01/08 07:32:07;;;;;;;12.18;5.97;;;6.30;99.90;;;6.57;75.62;100882.31;5075127;28;20067;-72
2022/01/08 07:34:37;;;;;;;15.97;6.67;;;6.30;99.90;;;6.57;75.76;100886.69;5075288;28;20471;-72
2022/01/08 07:37:06;;;;;;;10.98;6.10;;;6.30;99.90;;;6.55;75.91;100884.03;5073934;28;20052;-72
2022/01/08 07:39:35;;;;;;;16.43;6.63;;;6.40;99.90;;;6.51;76.07;100883.97;5074931;28;20413;-72
2022/01/08 07:42:03;;;;;;;11.77;6.17;;;6.30;99.90;;;6.55;76.29;100888.41;5074922;28;20552;-73
2022/01/08 07:44:33;;;;;;;9.82;5.95;;;6.30;99.90;;;6.35;76.17;100854.00;5073902;28;20137;-73
2022/01/08 07:47:02;;;;;;;13.33;6.57;;;6.40;99.90;;;6.59;76.03;100875.34;5075145;28;20548;-72
2022/01/08 07:49:30;;;;;;;11.77;5.67;;;6.40;99.90;;;6.58;76.40;100884.06;5075209;28;20127;-72
2022/01/08 07:52:00;;;;;;;11.85;5.40;;;6.40;99.90;;;6.50;76.63;100871.72;5075049;28;20044;-73
2022/01/08 07:54:29;;;;;;;9.95;5.72;;;6.30;99.90;;;6.47;77.23;100869.94;5075055;28;20379;-72
2022/01/08 07:56:57;;;;;;;13.10;6.25;;;6.30;99.90;;;6.54;77.26;100876.16;5074970;28;20107;-72
2022/01/08 07:59:25;;;;;;;19.77;6.53;;;6.30;99.90;;;6.50;77.73;100861.22;5074318;28;20469;-71
2022/01/08 08:01:54;;;;;;;15.57;6.10;;;6.30;99.90;;;6.51;77.91;100855.06;5075068;28;20074;-72
2022/01/08 08:04:22;;;;;;;14.60;6.18;;;6.30;99.90;;;6.50;78.31;100856.84;5074505;28;20499;-72
2022/01/08 08:06:50;;;;;;;20.27;6.60;;;6.30;99.90;;;6.56;78.17;100866.53;5074372;28;20052;-71
2022/01/08 08:09:20;;;;;;;15.80;5.97;;;6.40;99.90;;;6.54;78.41;100863.00;5074486;28;20075;-73
2022/01/08 08:11:48;;;;;;;13.50;5.68;;;6.30;99.90;;;6.52;78.70;100862.13;5072966;28;20056;-73
2022/01/08 08:14:17;;;;;;;10.37;6.20;;;6.30;99.90;;;6.57;78.69;100856.03;5074619;28;20072;-72
2022/01/08 08:16:45;;;;;;;15.18;6.20;;;6.30;99.90;;;6.45;79.46;100845.38;5074255;28;20044;-72
2022/01/08 08:19:14;;;;;;;15.32;6.90;;;6.30;99.90;;;6.45;79.82;100847.13;5073656;28;20137;-72
2022/01/08 08:21:42;;;;;;;18.73;7.78;;;6.30;99.90;;;6.35;80.67;100843.50;5074419;28;20045;-72
2022/01/08 08:24:13;;;;;;;16.07;8.27;;;6.20;99.90;;;6.32;80.98;100839.13;5073871;28;20036;-72
2022/01/08 08:26:43;;;;;;;14.75;8.05;;;6.10;99.90;;;6.46;80.86;100836.66;5074179;28;20131;-73
2022/01/08 08:29:11;;;;;;;17.15;8.10;;;6.20;99.90;;;6.41;81.03;100837.47;5074292;28;20059;-73
2022/01/08 08:31:40;;;;;;;16.87;7.13;;;6.20;99.90;;;6.43;81.12;100841.84;5073751;28;20132;-72
2022/01/08 08:34:10;;;;;;;18.83;7.45;;;6.30;99.90;;;6.42;81.47;100839.22;5074142;28;20045;-73
2022/01/08 08:36:38;;;;;;;14.45;6.72;;;6.30;99.90;;;6.43;81.08;100838.38;5073862;28;20047;-72
2022/01/08 08:39:06;;;;;;;14.35;6.65;;;6.30;99.90;;;6.43;81.30;100836.59;5106517;28;20048;-72
2022/01/08 08:41:35;;;;;;;13.82;7.13;;;6.30;99.90;;;6.44;81.57;100832.25;5073737;28;20087;-72
2022/01/08 08:44:05;;;;;;;17.45;8.85;;;6.30;99.90;;;6.34;81.90;100834.75;5073747;28;20048;-71
2022/01/08 08:46:33;;;;;;;16.05;9.25;;;6.20;99.90;;;6.19;82.42;100820.56;5073906;28;20056;-72
2022/01/08 08:49:02;;;;;;;17.42;10.23;;;6.10;99.90;;;6.19;83.01;100820.56;5073400;28;20452;-70
2022/01/08 08:51:30;;;;;;;19.27;10.50;;;6.00;99.90;;;6.13;83.58;100820.50;5073853;28;20152;-72
2022/01/08 08:54:02;;;;;;;20.77;10.73;;;6.00;99.90;;;6.09;83.73;100819.56;5073554;28;20127;-72
2022/01/08 08:56:31;;;;;;;18.20;10.77;;;5.90;99.90;;;6.06;84.02;100814.25;5073667;28;20432;-71
2022/01/08 08:58:59;;;;;;;19.43;12.03;;;5.90;99.90;;;6.02;84.47;100812.47;5073242;28;20146;-72
2022/01/08 09:01:29;;;;;;;20.03;12.10;;;5.90;99.90;;;6.02;84.48;100816.84;5073158;28;20114;-72
2022/01/08 09:03:57;;;;;;;25.50;11.50;;;5.90;99.90;;;6.04;84.35;100802.00;5073188;28;20052;-72
2022/01/08 09:06:26;;;;;;;18.47;11.70;;;5.90;99.90;;;6.10;84.26;100802.06;5073506;28;20128;-70
2022/01/08 09:08:55;;;;;;;23.20;12.83;;;6.00;99.90;;;6.13;84.06;100799.47;5073771;28;20155;-71
2022/01/08 09:11:24;;;;;;;19.30;12.20;;;6.00;99.90;;;6.11;84.24;100796.84;5073065;28;20102;-69
2022/01/08 09:13:52;;;;;;;20.30;12.63;;;6.00;99.90;;;6.13;84.12;100774.13;5073289;28;20041;-72
2022/01/08 09:16:21;;;;;;;20.63;12.57;;;6.00;99.90;;;6.10;84.48;100775.81;5073461;28;20045;-70
2022/01/08 09:18:52;;;;;;;18.27;11.97;;;6.00;99.90;;;6.03;84.90;100768.72;5073448;28;20090;-69
2022/01/08 09:21:20;;;;;;;;;;;5.90;99.90;;;6.12;84.82;100768.81;5073507;28;20044;-70
2022/01/08 09:23:48;;;;;;;19.90;11.77;;;6.00;99.90;;;6.03;84.94;100747.72;5073166;28;19920;-73
2022/01/08 09:26:17;;;;;;;22.63;12.50;;;5.90;99.90;;;6.03;84.70;100735.50;5072910;28;20394;-71
2022/01/08 09:28:45;;;;;;;17.77;12.07;;;5.90;99.90;;;5.99;84.96;100740.66;5072595;28;20044;-72
2022/01/08 09:31:15;;;;;;;19.10;11.73;;;5.80;99.90;;;5.98;84.81;100731.91;5072593;28;20044;-75
2022/01/08 09:33:43;;;;;;;16.43;11.50;;;5.90;99.90;;;5.96;84.74;100728.38;5071863;28;20091;-73
2022/01/08 09:36:14;;;;;;;19.63;12.13;;;5.80;99.90;;;6.00;85.03;100743.31;5072743;28;20123;-73
2022/01/08 09:38:42;;;;;;;16.23;11.57;;;5.90;99.90;;;6.01;84.75;100737.22;5072728;28;20123;-72
2022/01/08 09:41:11;;;;;;;16.07;11.13;;;5.90;99.90;;;5.95;84.40;100734.50;5072645;28;20045;-69
2022/01/08 09:43:39;;;;;;;17.60;10.23;;;5.90;99.90;;;5.95;84.72;100729.25;5072661;28;20044;-69
2022/01/08 09:46:08;;;;;;;16.73;11.10;;;5.90;99.90;;;5.91;84.65;100721.31;5072700;28;20052;-70
2022/01/08 09:48:36;;;;;;;15.80;10.63;;;5.80;99.90;;;5.90;85.18;100714.31;5071513;28;20048;-71
2022/01/08 09:51:05;;;;;;;16.57;11.10;;;5.80;99.90;;;5.95;85.28;100699.50;5073128;28;20128;-71
2022/01/08 09:53:36;;;;;;;18.10;10.83;;;5.80;99.90;;;6.02;85.01;100704.84;5072632;28;20072;-69
2022/01/08 09:56:06;;;;;;;17.50;10.60;;;5.90;99.90;;;5.98;84.83;100705.66;5072625;28;20049;-68
2022/01/08 09:58:34;;;;;;;19.37;10.70;;;5.90;99.90;;;6.01;84.67;100689.97;5071227;28;20545;-68
2022/01/08 10:01:04;;;;;;;15.27;10.73;;;5.90;99.90;;;5.97;84.88;100687.28;5072320;28;20048;-69
2022/01/08 10:03:33;;;;;;;14.47;9.87;;;5.90;99.90;;;6.02;84.86;100683.84;5072574;28;20071;-68
2022/01/08 10:06:02;;;;;;;13.27;9.57;;;5.90;99.90;;;6.11;84.80;100670.81;5072515;28;20135;-69
2022/01/08 10:08:49;;;;;;;12.90;8.90;;;6.00;99.90;;;6.16;84.57;100653.34;5072402;28;20079;-69
2022/01/08 10:11:19;;;;;;;15.03;9.70;;;6.10;99.90;;;6.18;84.23;100658.63;5071272;28;20079;-70
2022/01/08 10:13:51;;;;;;;;;;;6.10;99.90;;;6.31;83.56;100640.38;5072986;28;20083;-70
2022/01/08 10:19:20;;;;;;;12.87;8.37;;;6.20;99.90;;;6.30;81.26;100636.00;5072293;28;20078;-68
2022/01/08 10:21:49;;;;;;;9.87;6.83;;;6.20;99.90;;;5.92;79.79;100550.72;5072251;28;20467;-70
2022/01/08 10:24:26;;;;;;;13.20;7.13;;;6.20;99.90;;;6.29;79.08;100623.72;5071188;28;20057;-71
2022/01/08 10:27:03;;;;;;;10.18;6.50;;;6.20;99.90;;;6.39;79.19;100603.66;5072484;28;20044;-70
2022/01/08 10:29:32;;;;;;;9.13;6.00;;;6.30;99.90;;;6.43;79.20;100581.81;5071237;28;20051;-70
2022/01/08 10:32:00;;;;;;;9.17;6.70;;;6.30;99.90;;;6.45;78.85;100581.81;5072098;28;20049;-70
2022/01/08 10:34:31;;;;;;;12.10;7.63;;;6.40;99.90;;;6.46;78.73;100573.97;5072178;28;20053;-76
2022/01/08 10:37:02;;;;;;;11.93;7.63;;;6.40;99.90;;;6.33;78.24;100582.59;5072202;28;20040;-75
2022/01/08 10:39:35;;;;;;;13.13;7.47;;;6.30;99.90;;;6.31;79.08;100585.22;5072367;28;20123;-74
2022/01/08 10:42:14;;;;;;;11.73;7.38;;;6.30;99.90;;;5.97;78.87;100475.56;5073858;28;20478;-76
2022/01/08 10:44:46;;;;;;;16.13;7.93;;;6.30;99.90;;;6.44;78.93;100575.69;5075971;28;20525;-78